createdAt,value
2022-08-25T00:00:20.056Z,10.80
2022-08-25T00:02:56.233Z,9.90
2022-08-25T00:05:33.364Z,10.60
2022-08-25T00:08:01.719Z,9.60
2022-08-25T00:10:30.319Z,10.30
2022-08-25T00:12:58.329Z,9.40
2022-08-25T00:15:26.038Z,10.10
2022-08-25T00:17:53.812Z,9.90
2022-08-25T00:20:22.095Z,11.20
2022-08-25T00:22:49.944Z,9.50
2022-08-25T00:25:17.990Z,10.20
2022-08-25T00:27:46.703Z,11.00
2022-08-25T00:30:16.065Z,11.40
2022-08-25T00:32:54.984Z,11.10
2022-08-25T00:37:53.243Z,11.00
2022-08-25T00:40:22.792Z,10.40
2022-08-25T00:42:50.683Z,12.00
2022-08-25T00:45:18.949Z,10.00
2022-08-25T00:47:46.694Z,10.20
2022-08-25T00:50:16.876Z,13.20
2022-08-25T00:52:49.649Z,11.20
2022-08-25T00:55:21.016Z,11.00
2022-08-25T00:57:55.566Z,10.70
2022-08-25T01:00:27.590Z,9.00
2022-08-25T01:02:57.235Z,10.50
2022-08-25T01:05:27.298Z,10.00
2022-08-25T01:07:58.514Z,10.50
2022-08-25T01:10:28.060Z,11.40
2022-08-25T01:13:01.036Z,13.60
2022-08-25T01:15:29.719Z,10.70
2022-08-25T01:17:59.760Z,12.00
2022-08-25T01:20:30.223Z,11.60
2022-08-25T01:22:59.854Z,12.30
2022-08-25T01:25:39.543Z,11.30
2022-08-25T01:28:07.829Z,11.60
2022-08-25T01:30:36.533Z,12.40
2022-08-25T01:33:05.458Z,12.10
2022-08-25T01:35:34.502Z,13.00
2022-08-25T01:38:04.279Z,11.80
2022-08-25T01:40:33.556Z,13.10
2022-08-25T01:43:11.422Z,12.80
2022-08-25T01:45:41.130Z,13.50
2022-08-25T01:48:10.641Z,12.40
2022-08-25T01:50:39.315Z,11.90
2022-08-25T01:53:14.661Z,13.20
2022-08-25T01:55:51.297Z,13.50
2022-08-25T01:58:19.542Z,11.90
2022-08-25T02:00:49.284Z,12.60
2022-08-25T02:03:18.721Z,11.90
2022-08-25T02:05:48.129Z,13.20
2022-08-25T02:08:17.045Z,13.10
2022-08-25T02:10:45.293Z,12.00
2022-08-25T02:13:13.268Z,13.00
2022-08-25T02:15:44.634Z,12.60
2022-08-25T02:18:13.042Z,12.50
2022-08-25T02:20:41.186Z,18.50
2022-08-25T02:23:09.674Z,14.50
2022-08-25T02:25:39.801Z,13.70
2022-08-25T02:28:08.492Z,14.10
2022-08-25T02:30:36.887Z,14.50
2022-08-25T02:33:04.961Z,14.10
2022-08-25T02:35:32.703Z,13.80
2022-08-25T02:38:00.978Z,12.20
2022-08-25T02:40:29.375Z,14.00
2022-08-25T02:42:57.137Z,13.30
2022-08-25T02:45:24.792Z,14.90
2022-08-25T02:47:52.932Z,12.20
2022-08-25T02:50:21.073Z,11.90
2022-08-25T02:52:49.964Z,12.60
2022-08-25T02:55:18.582Z,13.30
2022-08-25T02:57:47.481Z,14.40
2022-08-25T03:00:17.908Z,14.80
2022-08-25T03:02:46.688Z,14.20
2022-08-25T03:05:15.580Z,14.90
2022-08-25T03:07:43.517Z,13.90
2022-08-25T03:10:16.888Z,13.20
2022-08-25T03:12:44.957Z,13.00
2022-08-25T03:15:16.045Z,13.70
2022-08-25T03:17:45.792Z,15.90
2022-08-25T03:20:13.729Z,12.80
2022-08-25T03:22:42.322Z,15.80
2022-08-25T03:25:29.126Z,12.80
2022-08-25T03:27:56.907Z,14.70
2022-08-25T03:30:25.128Z,13.60
2022-08-25T03:32:53.261Z,15.40
2022-08-25T03:35:21.286Z,13.30
2022-08-25T03:37:50.453Z,14.60
2022-08-25T03:40:18.263Z,14.20
2022-08-25T03:42:46.613Z,13.80
2022-08-25T03:45:17.029Z,16.00
2022-08-25T03:47:46.967Z,13.20
2022-08-25T03:50:17.102Z,12.70
2022-08-25T03:52:49.820Z,16.40
2022-08-25T03:55:17.655Z,16.40
2022-08-25T03:57:45.392Z,14.20
2022-08-25T04:00:13.972Z,16.10
2022-08-25T04:02:42.438Z,12.90
2022-08-25T04:05:11.043Z,14.60
2022-08-25T04:07:39.314Z,13.80
2022-08-25T04:10:09.834Z,15.60
2022-08-25T04:12:37.903Z,15.20
2022-08-25T04:15:08.633Z,14.60
2022-08-25T04:17:39.369Z,13.70
2022-08-25T04:20:10.432Z,16.70
2022-08-25T04:22:43.330Z,15.90
2022-08-25T04:27:41.766Z,15.70
2022-08-25T04:30:12.525Z,15.90
2022-08-25T04:32:40.228Z,16.90
2022-08-25T04:35:09.919Z,15.70
2022-08-25T04:37:37.805Z,16.60
2022-08-25T04:40:07.872Z,16.30
2022-08-25T04:42:35.781Z,15.30
2022-08-25T04:45:05.597Z,16.40
2022-08-25T04:47:38.079Z,16.20
2022-08-25T04:50:08.165Z,15.10
2022-08-25T04:52:36.924Z,15.80
2022-08-25T04:55:05.521Z,17.50
2022-08-25T04:57:33.249Z,18.50
2022-08-25T05:00:01.620Z,17.10
2022-08-25T05:02:29.434Z,17.00
2022-08-25T05:04:57.255Z,16.60
2022-08-25T05:07:24.959Z,16.60
2022-08-25T05:09:52.781Z,18.10
2022-08-25T05:12:20.558Z,14.30
2022-08-25T05:14:51.640Z,15.90
2022-08-25T05:17:19.382Z,17.40
2022-08-25T05:19:50.317Z,17.80
2022-08-25T05:22:18.109Z,18.60
2022-08-25T05:24:46.477Z,15.70
2022-08-25T05:27:14.183Z,17.40
2022-08-25T05:29:42.031Z,16.20
2022-08-25T05:32:09.708Z,14.40
2022-08-25T05:34:37.489Z,17.80
2022-08-25T05:37:07.382Z,15.70
2022-08-25T05:39:38.014Z,15.70
2022-08-25T05:42:06.623Z,18.90
2022-08-25T05:44:34.329Z,15.90
2022-08-25T05:47:02.107Z,16.60
2022-08-25T05:49:29.880Z,16.90
2022-08-25T05:51:57.632Z,20.30
2022-08-25T05:54:25.470Z,18.00
2022-08-25T05:56:53.266Z,17.20
2022-08-25T05:59:20.952Z,18.30
2022-08-25T06:02:07.255Z,18.80
2022-08-25T06:04:39.598Z,17.10
2022-08-25T06:07:09.783Z,16.40
2022-08-25T06:09:39.061Z,22.60
2022-08-25T06:12:08.293Z,19.00
2022-08-25T06:14:36.310Z,17.00
2022-08-25T06:17:05.081Z,17.10
2022-08-25T06:19:32.833Z,16.70
2022-08-25T06:22:01.212Z,18.80
2022-08-25T06:24:29.695Z,17.60
2022-08-25T06:26:57.860Z,17.20
2022-08-25T06:29:29.019Z,17.90
2022-08-25T06:34:24.422Z,18.20
2022-08-25T06:36:52.868Z,18.90
2022-08-25T06:39:20.711Z,19.40
2022-08-25T06:41:52.745Z,18.40
2022-08-25T06:44:21.424Z,18.80
2022-08-25T06:46:49.715Z,18.00
2022-08-25T06:49:17.639Z,20.20
2022-08-25T06:51:45.364Z,20.80
2022-08-25T06:54:13.463Z,24.30
2022-08-25T06:56:42.088Z,18.60
2022-08-25T06:59:10.672Z,21.20
2022-08-25T07:01:39.020Z,20.50
2022-08-25T07:04:11.790Z,23.70
2022-08-25T07:06:41.367Z,23.30
2022-08-25T07:09:10.411Z,24.10
2022-08-25T07:11:38.555Z,21.50
2022-08-25T07:14:08.828Z,22.10
2022-08-25T07:16:37.206Z,21.80
2022-08-25T07:19:06.079Z,24.00
2022-08-25T07:21:38.816Z,22.30
2022-08-25T07:24:09.163Z,24.10
2022-08-25T07:26:41.430Z,21.00
2022-08-25T07:29:16.805Z,24.20
2022-08-25T07:31:48.356Z,25.40
2022-08-25T07:34:34.758Z,23.80
2022-08-25T07:37:04.082Z,23.80
2022-08-25T07:39:34.979Z,23.80
2022-08-25T07:42:02.738Z,23.60
2022-08-25T07:44:30.860Z,21.70
2022-08-25T07:46:59.044Z,19.90
2022-08-25T07:49:36.232Z,20.80
2022-08-25T07:52:08.952Z,21.50
2022-08-25T07:54:38.432Z,21.90
2022-08-25T07:57:08.467Z,20.00
2022-08-25T07:59:40.131Z,24.30
2022-08-25T08:02:17.766Z,19.70
2022-08-25T08:04:49.541Z,21.30
2022-08-25T08:07:19.182Z,23.00
2022-08-25T08:09:55.787Z,22.50
2022-08-25T08:12:26.306Z,24.20
2022-08-25T08:14:59.427Z,21.10
2022-08-25T08:17:27.505Z,19.60
2022-08-25T08:19:56.505Z,19.00
2022-08-25T08:22:24.387Z,24.90
2022-08-25T08:24:56.120Z,23.00
2022-08-25T08:27:24.451Z,20.00
2022-08-25T08:29:52.930Z,19.10
2022-08-25T08:32:25.161Z,21.80
2022-08-25T08:34:59.657Z,18.30
2022-08-25T08:37:27.496Z,18.90
2022-08-25T08:39:56.043Z,21.20
2022-08-25T08:42:42.275Z,19.70
2022-08-25T08:45:30.813Z,19.20
2022-08-25T08:48:21.678Z,18.00
2022-08-25T08:51:03.963Z,16.80
2022-08-25T08:53:45.486Z,17.90
2022-08-25T08:56:16.225Z,17.80
2022-08-25T08:58:47.165Z,18.80
2022-08-25T09:01:24.191Z,17.50
2022-08-25T09:03:58.854Z,19.00
2022-08-25T09:06:31.614Z,19.20
2022-08-25T09:09:03.539Z,16.40
2022-08-25T09:11:50.120Z,18.00
2022-08-25T09:14:31.406Z,19.40
2022-08-25T09:17:05.332Z,17.90
2022-08-25T09:19:53.551Z,16.40
2022-08-25T09:22:36.706Z,16.10
2022-08-25T09:25:22.094Z,17.70
2022-08-25T09:28:05.877Z,17.30
2022-08-25T09:30:44.845Z,16.40
2022-08-25T09:33:21.045Z,19.90
2022-08-25T09:35:51.030Z,15.20
2022-08-25T09:38:22.213Z,17.40
2022-08-25T09:40:53.853Z,16.10
2022-08-25T09:43:31.105Z,16.20
2022-08-25T09:46:01.701Z,18.20
2022-08-25T09:48:39.771Z,16.60
2022-08-25T09:51:18.271Z,17.60
2022-08-25T09:53:51.785Z,17.40
2022-08-25T09:56:22.369Z,15.80
2022-08-25T09:58:51.419Z,14.20
2022-08-25T10:01:20.757Z,14.80
2022-08-25T10:04:13.958Z,14.50
2022-08-25T10:06:48.295Z,15.00
2022-08-25T10:09:29.375Z,14.20
2022-08-25T10:12:00.386Z,15.20
2022-08-25T10:14:35.886Z,15.20
2022-08-25T10:17:15.778Z,14.10
2022-08-25T10:19:44.078Z,15.50
2022-08-25T10:22:20.952Z,15.30
2022-08-25T10:24:49.568Z,13.20
2022-08-25T10:27:28.730Z,13.50
2022-08-25T10:30:12.203Z,14.40
2022-08-25T10:33:02.330Z,12.80
2022-08-25T10:35:50.742Z,12.50
2022-08-25T10:38:36.429Z,12.80
2022-08-25T10:41:19.426Z,13.80
2022-08-25T10:43:54.058Z,12.80
2022-08-25T10:46:33.183Z,11.70
2022-08-25T10:49:08.786Z,12.50
2022-08-25T10:51:51.310Z,12.00
2022-08-25T10:54:37.991Z,11.60
2022-08-25T10:57:16.606Z,12.00
2022-08-25T10:59:56.732Z,13.10
2022-08-25T11:05:10.185Z,13.40
2022-08-25T11:07:45.554Z,14.10
2022-08-25T11:10:20.349Z,13.80
2022-08-25T11:12:53.970Z,14.40
2022-08-25T11:15:28.492Z,12.00
2022-08-25T11:18:01.060Z,13.30
2022-08-25T11:20:33.321Z,13.00
2022-08-25T11:23:11.527Z,12.00
2022-08-25T11:25:43.475Z,12.00
2022-08-25T11:28:20.009Z,12.50
2022-08-25T11:30:52.145Z,12.50
2022-08-25T11:33:22.826Z,11.10
2022-08-25T11:35:54.884Z,11.70
2022-08-25T11:38:40.636Z,13.60
2022-08-25T11:41:20.017Z,11.30
2022-08-25T11:44:13.084Z,13.50
2022-08-25T11:47:14.776Z,14.60
2022-08-25T11:49:57.619Z,12.50
2022-08-25T11:52:46.656Z,11.50
2022-08-25T11:55:17.234Z,11.30
2022-08-25T11:57:53.795Z,11.90
2022-08-25T12:00:38.529Z,12.80
2022-08-25T12:03:42.244Z,15.80
2022-08-25T12:06:20.806Z,13.00
2022-08-25T12:08:57.763Z,13.50
2022-08-25T12:11:48.017Z,12.00
2022-08-25T12:14:31.798Z,12.10
2022-08-25T12:17:17.152Z,10.90
2022-08-25T12:19:55.338Z,11.30
2022-08-25T12:22:56.558Z,12.60
2022-08-25T12:25:35.042Z,10.90
2022-08-25T12:28:09.773Z,11.10
2022-08-25T12:30:46.439Z,12.50
2022-08-25T12:33:30.881Z,12.10
2022-08-25T12:36:01.360Z,11.50
2022-08-25T12:38:35.031Z,12.80
2022-08-25T12:41:09.357Z,14.80
2022-08-25T12:43:39.579Z,12.40
2022-08-25T12:46:38.679Z,11.40
2022-08-25T12:49:29.471Z,11.30
2022-08-25T12:52:01.388Z,12.30
2022-08-25T12:54:47.671Z,11.40
2022-08-25T12:57:36.743Z,13.50
2022-08-25T13:00:16.684Z,11.30
2022-08-25T13:03:19.353Z,11.50
2022-08-25T13:06:12.933Z,12.10
2022-08-25T13:09:17.820Z,11.40
2022-08-25T13:11:53.598Z,11.30
2022-08-25T13:17:06.197Z,13.90
2022-08-25T13:19:34.612Z,13.20
2022-08-25T13:22:16.070Z,12.40
2022-08-25T13:24:47.515Z,11.10
2022-08-25T13:27:26.314Z,10.40
2022-08-25T13:29:57.334Z,11.50
2022-08-25T13:32:32.328Z,10.60
2022-08-25T13:35:15.054Z,11.30
2022-08-25T13:37:48.206Z,11.70
2022-08-25T13:40:25.880Z,10.90
2022-08-25T13:42:58.073Z,11.90
2022-08-25T13:45:30.062Z,9.50
2022-08-25T13:48:00.123Z,10.50
2022-08-25T13:50:34.176Z,10.70
2022-08-25T13:53:04.840Z,11.90
2022-08-25T13:55:38.243Z,10.10
2022-08-25T13:58:24.723Z,13.70
2022-08-25T14:01:22.380Z,11.30
2022-08-25T14:04:16.247Z,11.70
2022-08-25T14:06:45.884Z,13.50
2022-08-25T14:09:16.527Z,10.10
2022-08-25T14:11:47.754Z,10.00
2022-08-25T14:14:32.890Z,9.50
2022-08-25T14:17:12.133Z,12.10
2022-08-25T14:19:49.968Z,10.90
2022-08-25T14:22:17.755Z,10.40
2022-08-25T14:24:45.639Z,11.00
2022-08-25T14:27:13.480Z,11.70
2022-08-25T14:29:41.402Z,10.20
2022-08-25T14:32:10.438Z,11.70
2022-08-25T14:34:39.658Z,9.00
2022-08-25T14:37:13.967Z,10.10
2022-08-25T14:39:44.112Z,13.60
2022-08-25T14:42:12.561Z,10.50
2022-08-25T14:44:40.405Z,11.00
2022-08-25T14:47:09.197Z,9.10
2022-08-25T14:49:41.982Z,10.40
2022-08-25T14:52:19.443Z,9.90
2022-08-25T14:54:50.845Z,11.70
2022-08-25T14:57:19.589Z,10.40
2022-08-25T14:59:49.301Z,11.20
2022-08-25T15:02:20.101Z,11.40
2022-08-25T15:04:52.136Z,10.70
2022-08-25T15:07:39.622Z,12.10
2022-08-25T15:10:09.185Z,10.90
2022-08-25T15:12:47.724Z,12.20
2022-08-25T15:15:16.773Z,11.40
2022-08-25T15:17:47.026Z,10.40
2022-08-25T15:20:17.389Z,11.10
2022-08-25T15:22:45.180Z,11.80
2022-08-25T15:25:13.416Z,11.60
2022-08-25T15:27:41.142Z,12.30
2022-08-25T15:30:13.116Z,14.70
2022-08-25T15:32:41.086Z,11.60
2022-08-25T15:35:12.049Z,12.20
2022-08-25T15:37:43.527Z,12.70
2022-08-25T15:40:12.651Z,10.70
2022-08-25T15:42:42.967Z,11.00
2022-08-25T15:45:14.122Z,13.50
2022-08-25T15:47:42.059Z,10.90
2022-08-25T15:50:13.778Z,10.20
2022-08-25T15:52:46.375Z,10.40
2022-08-25T15:55:16.941Z,11.80
2022-08-25T15:57:44.836Z,11.10
2022-08-25T16:00:16.811Z,9.70
2022-08-25T16:02:45.620Z,12.00
2022-08-25T16:05:16.458Z,9.80
2022-08-25T16:10:13.728Z,11.70
2022-08-25T16:12:42.730Z,9.80
2022-08-25T16:15:12.388Z,10.00
2022-08-25T16:17:40.569Z,10.40
2022-08-25T16:20:13.786Z,12.20
2022-08-25T16:22:42.779Z,10.40
2022-08-25T16:25:11.213Z,11.80
2022-08-25T16:27:39.893Z,10.70
2022-08-25T16:30:17.381Z,8.70
2022-08-25T16:32:46.001Z,10.60
2022-08-25T16:35:14.117Z,11.60
2022-08-25T16:37:41.754Z,11.10
2022-08-25T16:40:13.051Z,13.90
2022-08-25T16:42:42.582Z,10.60
2022-08-25T16:45:11.555Z,9.50
2022-08-25T16:47:39.297Z,11.30
2022-08-25T16:50:11.036Z,10.50
2022-08-25T16:52:58.295Z,10.50
2022-08-25T16:55:39.056Z,11.60
2022-08-25T16:58:08.742Z,12.80
2022-08-25T17:00:41.496Z,9.10
2022-08-25T17:03:12.679Z,10.70
2022-08-25T17:05:42.561Z,9.50
2022-08-25T17:08:28.647Z,10.20
2022-08-25T17:11:04.952Z,12.00
2022-08-25T17:13:33.746Z,11.30
2022-08-25T17:16:03.041Z,11.90
2022-08-25T17:18:31.950Z,11.30
2022-08-25T17:21:02.657Z,12.00
2022-08-25T17:23:33.185Z,9.30
2022-08-25T17:26:02.399Z,9.60
2022-08-25T17:28:30.680Z,10.10
2022-08-25T17:30:59.273Z,10.50
2022-08-25T17:33:27.133Z,10.70
2022-08-25T17:35:58.295Z,9.70
2022-08-25T17:38:28.393Z,11.80
2022-08-25T17:40:59.666Z,10.00
2022-08-25T17:43:30.518Z,8.90
2022-08-25T17:45:59.569Z,10.20
2022-08-25T17:48:28.562Z,10.10
2022-08-25T17:50:58.232Z,10.10
2022-08-25T17:53:28.318Z,12.10
2022-08-25T17:56:00.559Z,9.40
2022-08-25T17:58:29.839Z,13.40
2022-08-25T18:00:58.267Z,10.80
2022-08-25T18:03:26.569Z,11.70
2022-08-25T18:05:56.461Z,11.00
2022-08-25T18:08:32.197Z,11.10
2022-08-25T18:11:11.581Z,11.60
2022-08-25T18:13:40.816Z,13.00
2022-08-25T18:16:09.568Z,9.90
2022-08-25T18:18:38.074Z,10.40
2022-08-25T18:21:10.094Z,13.40
2022-08-25T18:23:38.118Z,12.70
2022-08-25T18:26:06.753Z,11.60
2022-08-25T18:28:34.692Z,15.40
2022-08-25T18:31:03.318Z,12.90
2022-08-25T18:33:31.794Z,11.70
2022-08-25T18:35:59.651Z,13.30
2022-08-25T18:38:45.620Z,11.80
2022-08-25T18:41:13.735Z,10.70
2022-08-25T18:43:42.024Z,11.30
2022-08-25T18:46:10.126Z,12.70
2022-08-25T18:48:37.853Z,13.40
2022-08-25T18:51:06.784Z,11.40
2022-08-25T18:53:50.311Z,12.40
2022-08-25T18:56:19.766Z,12.10
2022-08-25T18:58:48.098Z,12.00
2022-08-25T19:01:17.340Z,14.10
2022-08-25T19:03:46.664Z,16.20
2022-08-25T19:06:16.612Z,12.00
2022-08-25T19:08:44.453Z,12.70
2022-08-25T19:11:13.066Z,12.60
2022-08-25T19:13:41.176Z,13.00
2022-08-25T19:16:17.700Z,14.10
2022-08-25T19:18:48.607Z,12.70
2022-08-25T19:21:19.864Z,13.50
2022-08-25T19:23:50.800Z,14.60
2022-08-25T19:26:19.515Z,11.70
2022-08-25T19:28:48.904Z,14.00
2022-08-25T19:31:18.122Z,14.90
2022-08-25T19:33:46.431Z,13.20
2022-08-25T19:36:17.311Z,12.70
2022-08-25T19:38:45.487Z,12.70
2022-08-25T19:41:14.642Z,12.80
2022-08-25T19:43:56.675Z,12.40
2022-08-25T19:46:32.286Z,13.10
2022-08-25T19:49:07.633Z,13.10
2022-08-25T19:51:36.854Z,13.90
2022-08-25T19:54:06.355Z,11.40
2022-08-25T19:56:37.371Z,12.80
2022-08-25T19:59:12.376Z,13.20
2022-08-25T20:01:40.927Z,13.50
2022-08-25T20:04:09.974Z,12.40
2022-08-25T20:06:38.090Z,12.90
2022-08-25T20:09:06.992Z,13.60
2022-08-25T20:11:48.795Z,14.40
2022-08-25T20:14:17.153Z,14.90
2022-08-25T20:16:44.873Z,13.30
2022-08-25T20:19:13.025Z,12.80
2022-08-25T20:24:29.990Z,13.40
2022-08-25T20:26:58.376Z,12.40
2022-08-25T20:29:26.284Z,14.10
2022-08-25T20:31:54.457Z,13.20
2022-08-25T20:34:22.310Z,13.40
2022-08-25T20:36:50.490Z,14.10
2022-08-25T20:39:21.158Z,15.80
2022-08-25T20:41:49.132Z,13.90
2022-08-25T20:44:17.621Z,14.80
2022-08-25T20:46:46.620Z,13.50
2022-08-25T20:49:14.494Z,13.90
2022-08-25T20:51:43.331Z,13.90
2022-08-25T20:54:14.369Z,13.20
2022-08-25T20:56:42.617Z,13.40
2022-08-25T20:59:10.951Z,12.80
2022-08-25T21:01:40.481Z,14.60
2022-08-25T21:04:14.477Z,12.00
2022-08-25T21:06:44.012Z,12.90
2022-08-25T21:09:16.174Z,14.70
2022-08-25T21:11:45.066Z,12.70
2022-08-25T21:14:13.946Z,16.30
2022-08-25T21:16:45.659Z,13.80
2022-08-25T21:19:14.378Z,12.80
2022-08-25T21:21:42.456Z,12.10
2022-08-25T21:24:11.563Z,12.90
2022-08-25T21:26:49.010Z,13.60
2022-08-25T21:29:19.615Z,15.10
2022-08-25T21:31:48.478Z,13.30
2022-08-25T21:34:17.879Z,14.80
2022-08-25T21:36:47.982Z,14.10
2022-08-25T21:39:16.261Z,14.70
2022-08-25T21:41:45.089Z,15.40
2022-08-25T21:44:13.831Z,14.60
2022-08-25T21:46:42.071Z,13.10
2022-08-25T21:49:23.506Z,12.70
2022-08-25T21:52:00.742Z,13.30
2022-08-25T21:54:29.385Z,15.00
2022-08-25T21:56:59.192Z,13.60
2022-08-25T21:59:29.307Z,14.40
2022-08-25T22:01:59.190Z,12.70
2022-08-25T22:04:28.449Z,14.60
2022-08-25T22:06:57.179Z,16.50
2022-08-25T22:09:28.383Z,17.10
2022-08-25T22:11:57.234Z,15.60
2022-08-25T22:14:27.485Z,12.20
2022-08-25T22:16:56.403Z,13.50
2022-08-25T22:19:24.801Z,13.80
2022-08-25T22:21:53.136Z,15.70
2022-08-25T22:24:22.049Z,14.50
2022-08-25T22:26:50.226Z,14.40
2022-08-25T22:29:24.758Z,15.30
2022-08-25T22:32:13.744Z,16.80
2022-08-25T22:34:43.622Z,14.50
2022-08-25T22:37:11.759Z,15.10
2022-08-25T22:39:42.988Z,13.90
2022-08-25T22:44:39.188Z,15.40
2022-08-25T22:47:08.628Z,14.50
2022-08-25T22:49:38.551Z,13.30
2022-08-25T22:52:07.054Z,17.10
2022-08-25T22:54:37.600Z,16.70
2022-08-25T22:57:06.897Z,15.60
2022-08-25T22:59:34.871Z,15.20
2022-08-25T23:02:02.642Z,14.60
2022-08-25T23:04:31.017Z,15.90
2022-08-25T23:06:59.066Z,16.10
2022-08-25T23:09:27.106Z,15.30
2022-08-25T23:11:55.196Z,15.10
2022-08-25T23:14:23.406Z,17.30
2022-08-25T23:16:51.095Z,15.70
2022-08-25T23:19:20.236Z,14.30
2022-08-25T23:22:06.905Z,15.30
2022-08-25T23:24:35.017Z,14.80
2022-08-25T23:27:05.146Z,14.70
2022-08-25T23:29:36.957Z,14.00
2022-08-25T23:32:07.354Z,14.10
2022-08-25T23:34:36.707Z,18.50
2022-08-25T23:37:07.288Z,16.00
2022-08-25T23:39:35.724Z,14.80
2022-08-25T23:42:08.341Z,15.50
2022-08-25T23:44:36.265Z,14.50
2022-08-25T23:47:06.079Z,16.90
2022-08-25T23:49:33.819Z,15.90
2022-08-25T23:52:03.988Z,16.30
2022-08-25T23:54:32.043Z,16.60
2022-08-25T23:57:00.417Z,18.50
2022-08-25T23:59:29.555Z,16.10
